createdAt,value
2022-09-09T00:02:53.352Z,14.2
2022-09-09T00:08:32.507Z,14.1
2022-09-09T00:14:09.035Z,14
2022-09-09T04:57:18.563Z,13.6
2022-09-09T05:02:57.741Z,14.4
2022-09-09T05:08:34.650Z,15.6
2022-09-09T05:13:59.059Z,16.9
2022-09-09T05:19:37.512Z,18.4
2022-09-09T05:25:20.538Z,20.3
2022-09-09T05:30:43.158Z,22.1
2022-09-09T05:35:52.992Z,24.1
2022-09-09T05:41:34.213Z,26.6
2022-09-09T05:47:12.350Z,29.1
2022-09-09T05:52:51.033Z,31.7
2022-09-09T05:58:28.384Z,34.3
2022-09-09T06:03:50.665Z,36.8
2022-09-09T06:09:33.206Z,39.3
2022-09-09T06:15:10.723Z,41.5
2022-09-09T06:20:48.078Z,43.8
2022-09-09T06:26:26.216Z,46.1
2022-09-09T06:32:04.485Z,48.6
2022-09-09T06:37:42.126Z,51.3
2022-09-09T06:43:20.531Z,47.1
2022-09-09T06:48:57.438Z,45.1
2022-09-09T06:54:38.559Z,48.8
2022-09-09T07:00:36.725Z,54.1
2022-09-09T07:05:27.841Z,46.3
2022-09-09T07:10:57.637Z,47.2
2022-09-09T07:16:36.297Z,51.4
2022-09-09T07:22:17.178Z,48.6
2022-09-09T07:27:55.426Z,47.6
2022-09-09T07:33:41.442Z,55
2022-09-09T07:39:24.065Z,48.3
2022-09-09T07:45:02.377Z,49.3
2022-09-09T07:50:28.286Z,55.2
2022-09-09T07:56:07.101Z,51.6
2022-09-09T08:01:47.978Z,53.5
2022-09-09T08:07:10.855Z,52.5
2022-09-09T08:13:08.160Z,51.1
2022-09-09T08:18:57.800Z,50.6
2022-09-09T08:24:20.162Z,52.7
2022-09-09T08:29:57.762Z,51.7
2022-09-09T08:35:42.479Z,49.9
2022-09-09T08:41:24.145Z,50.6
2022-09-09T08:47:07.653Z,55.5
2022-09-09T08:52:29.054Z,52.6
2022-09-09T08:58:17.280Z,55.1
2022-09-09T09:03:28.566Z,55.4
2022-09-09T13:32:30.627Z,46.4
2022-09-09T13:38:11.789Z,43.3
2022-09-09T13:43:49.572Z,41.4
2022-09-09T13:49:30.010Z,40.4
2022-09-09T13:55:08.468Z,40.2
2022-09-09T14:00:59.966Z,41.2
2022-09-09T14:06:37.666Z,42.7
2022-09-09T14:12:16.240Z,43.4
2022-09-09T14:17:54.200Z,44.6
2022-09-09T14:23:37.240Z,45.1
2022-09-09T14:29:29.727Z,44.4
2022-09-09T14:35:07.225Z,43.5
2022-09-09T14:40:29.457Z,44.8
2022-09-09T14:46:07.759Z,44.9
2022-09-09T14:51:32.052Z,44.4
2022-09-09T14:56:53.120Z,43.3
2022-09-09T15:02:32.424Z,41.8
2022-09-09T15:08:10.560Z,40.7
2022-09-09T15:13:47.579Z,39.1
2022-09-09T15:19:29.497Z,37.9
2022-09-09T15:25:11.427Z,37.3
2022-09-09T15:30:49.819Z,36.3
2022-09-09T15:36:28.864Z,35.1
2022-09-09T15:42:06.275Z,33.7
2022-09-09T15:47:44.360Z,32.6
2022-09-09T15:53:50.119Z,31.5
2022-09-09T15:59:27.368Z,30.7
2022-09-09T16:05:11.293Z,29.8
2022-09-09T16:10:49.658Z,29
2022-09-09T16:16:31.603Z,28.3
2022-09-09T16:22:08.881Z,27.6
2022-09-09T16:27:50.804Z,26.9
2022-09-09T16:33:33.003Z,26.3
2022-09-09T16:39:09.990Z,25.8
2022-09-09T16:44:49.047Z,25.3
2022-09-09T16:50:26.785Z,24.8
2022-09-09T16:56:04.083Z,24.4
2022-09-09T17:01:42.870Z,24.1
2022-09-09T17:07:26.584Z,23.8
2022-09-09T17:12:48.375Z,23.4
2022-09-09T17:18:44.493Z,23.1
2022-09-09T17:24:52.443Z,22.9
2022-09-09T17:30:13.439Z,22.8
2022-09-09T17:35:36.687Z,22.7
2022-09-09T17:41:18.816Z,22.6
2022-09-09T17:46:40.767Z,22.5
2022-09-09T17:52:03.841Z,22.4
2022-09-09T17:57:41.107Z,22.3
2022-09-09T18:03:19.619Z,22.1
2022-09-09T18:08:58.426Z,22
2022-09-09T18:14:34.733Z,21.9
2022-09-09T18:20:11.636Z,21.8
2022-09-09T18:25:50.113Z,21.8
2022-09-09T18:31:30.691Z,21.7
2022-09-09T18:37:11.486Z,21.6
2022-09-09T18:42:50.195Z,21.5
2022-09-09T18:48:27.418Z,21.4
2022-09-09T18:54:05.006Z,21.3
2022-09-09T18:59:27.768Z,21.3
2022-09-09T19:05:05.605Z,21.2
2022-09-09T19:16:12.783Z,21.1
2022-09-09T19:21:49.480Z,20.9
2022-09-09T19:27:11.365Z,20.9
2022-09-09T19:33:25.750Z,20.9
2022-09-09T19:38:48.782Z,20.8
2022-09-09T19:44:10.662Z,20.7
2022-09-09T19:49:33.712Z,20.8
2022-09-09T19:55:11.087Z,20.8
2022-09-09T20:00:49.817Z,20.8
2022-09-09T20:06:51.568Z,20.8
2022-09-09T20:12:28.681Z,20.8
2022-09-09T20:18:06.118Z,20.8
2022-09-09T20:23:49.097Z,20.7
2022-09-09T20:29:15.378Z,20.6
2022-09-09T20:34:53.686Z,20.5
2022-09-09T20:40:33.447Z,20.4
2022-09-09T20:46:10.623Z,20.4
2022-09-09T20:51:53.811Z,20.3
2022-09-09T20:57:32.163Z,20.3
2022-09-09T21:03:09.748Z,20.2
2022-09-09T21:08:50.172Z,20.1
2022-09-09T21:14:28.522Z,19.9
2022-09-09T21:19:49.974Z,19.8
2022-09-09T21:25:27.708Z,19.7
2022-09-09T21:31:14.653Z,19.4
2022-09-09T21:36:57.216Z,19.3
2022-09-09T21:42:34.626Z,19.1
2022-09-09T21:48:12.414Z,18.9
2022-09-09T21:59:16.141Z,18.5
2022-09-09T22:04:39.844Z,18.4
2022-09-09T22:10:17.823Z,18.3
2022-09-09T22:15:38.908Z,18.3
2022-09-09T22:21:16.842Z,18.1
2022-09-09T22:26:54.326Z,18.1
2022-09-09T22:32:16.223Z,17.9
2022-09-09T22:37:38.587Z,17.9
2022-09-09T22:43:00.571Z,17.9
2022-09-09T22:48:06.493Z,17.8
2022-09-09T22:53:33.790Z,17.8
2022-09-09T22:59:11.880Z,17.8
2022-09-09T23:04:49.385Z,17.8
2022-09-09T23:10:11.902Z,17.8
2022-09-09T23:15:49.788Z,17.8
2022-09-09T23:21:10.614Z,17.9
2022-09-09T23:26:48.649Z,17.8
2022-09-09T23:32:26.500Z,17.9
2022-09-09T23:37:33.134Z,17.9
2022-09-09T23:42:40.281Z,17.9
2022-09-09T23:47:47.101Z,18
2022-09-09T23:52:53.204Z,18
2022-09-09T23:58:15.598Z,18
